sensor_id;sensor_type;location;lat;lon;timestamp;P1;durP1;ratioP1;P2;durP2;ratioP2
15557;SDS011;7880;50.110;9.372;2023-07-16T00:04:55;2.3000000000000003;;;2.1000000000000005;;
15557;SDS011;7880;50.110;9.372;2023-07-16T00:10:06;3.5461538461538464;;;2.4384615384615382;;
15557;SDS011;7880;50.110;9.372;2023-07-16T00:15:07;2.8;;;2.5;;
15557;SDS011;7880;50.110;9.372;2023-07-16T00:20:12;7.976923076923077;;;3.969230769230769;;
15557;SDS011;7880;50.110;9.372;2023-07-16T00:25:17;2.6000000000000005;;;2.3999999999999995;;
15557;SDS011;7880;50.110;9.372;2023-07-16T00:30:23;3.969230769230769;;;2.6000000000000005;;
15557;SDS011;7880;50.110;9.372;2023-07-16T00:35:33;2.8692307692307684;;;2.1000000000000005;;
15557;SDS011;7880;50.110;9.372;2023-07-16T00:40:46;2.161538461538462;;;1.8999999999999997;;
15557;SDS011;7880;50.110;9.372;2023-07-16T00:45:44;2.969230769230769;;;1.8999999999999997;;
15557;SDS011;7880;50.110;9.372;2023-07-16T00:50:50;3.56923076923077;;;2.3000000000000003;;
15557;SDS011;7880;50.110;9.372;2023-07-16T00:56:03;2.1999999999999997;;;1.8999999999999997;;
15557;SDS011;7880;50.110;9.372;2023-07-16T01:01:03;3.238461538461539;;;2.1000000000000005;;
15557;SDS011;7880;50.110;9.372;2023-07-16T01:06:11;4.96923076923077;;;2.6000000000000005;;
15557;SDS011;7880;50.110;9.372;2023-07-16T01:11:16;3.030769230769231;;;2.1000000000000005;;
15557;SDS011;7880;50.110;9.372;2023-07-16T01:16:22;2.1999999999999997;;;2.0;;
15557;SDS011;7880;50.110;9.372;2023-07-16T01:21:28;2.569230769230769;;;1.8999999999999997;;
15557;SDS011;7880;50.110;9.372;2023-07-16T01:26:40;3.2692307692307705;;;1.6999999999999995;;
15557;SDS011;7880;50.110;9.372;2023-07-16T01:31:37;4.6692307692307695;;;2.1000000000000005;;
15557;SDS011;7880;50.110;9.372;2023-07-16T01:36:46;2.523076923076923;;;1.7307692307692308;;
15557;SDS011;7880;50.110;9.372;2023-07-16T01:41:48;2.3000000000000003;;;1.9692307692307693;;
15557;SDS011;7880;50.110;9.372;2023-07-16T01:47:03;3.399999999999999;;;2.0;;
15557;SDS011;7880;50.110;9.372;2023-07-16T01:51:57;3.169230769230769;;;1.6999999999999995;;
15557;SDS011;7880;50.110;9.372;2023-07-16T01:57:03;4.16923076923077;;;1.8999999999999997;;
15557;SDS011;7880;50.110;9.372;2023-07-16T02:02:09;5.3307692307692305;;;1.8307692307692305;;
15557;SDS011;7880;50.110;9.372;2023-07-16T02:07:15;2.230769230769231;;;2.030769230769231;;
15557;SDS011;7880;50.110;9.372;2023-07-16T02:12:23;3.7692307692307705;;;2.030769230769231;;
15557;SDS011;7880;50.110;9.372;2023-07-16T02:17:26;4.538461538461538;;;1.8999999999999997;;
15557;SDS011;7880;50.110;9.372;2023-07-16T02:22:35;4.023076923076922;;;2.030769230769231;;
15557;SDS011;7880;50.110;9.372;2023-07-16T02:27:39;2.0692307692307694;;;1.8999999999999997;;
15557;SDS011;7880;50.110;9.372;2023-07-16T02:32:50;8.746153846153847;;;2.469230769230769;;
15557;SDS011;7880;50.110;9.372;2023-07-16T02:37:48;4.038461538461538;;;2.0;;
15557;SDS011;7880;50.110;9.372;2023-07-16T02:43:08;3.6769230769230776;;;2.1999999999999997;;
15557;SDS011;7880;50.110;9.372;2023-07-16T02:48:18;4.523076923076922;;;2.0;;
15557;SDS011;7880;50.110;9.372;2023-07-16T02:53:18;3.992307692307693;;;2.1000000000000005;;
15557;SDS011;7880;50.110;9.372;2023-07-16T02:58:24;4.830769230769231;;;2.823076923076923;;
15557;SDS011;7880;50.110;9.372;2023-07-16T03:03:30;3.06923076923077;;;2.3000000000000003;;
15557;SDS011;7880;50.110;9.372;2023-07-16T03:08:35;3.769230769230769;;;2.261538461538461;;
15557;SDS011;7880;50.110;9.372;2023-07-16T03:13:47;5.299999999999999;;;2.7;;
15557;SDS011;7880;50.110;9.372;2023-07-16T03:18:48;5.907692307692309;;;2.0692307692307694;;
15557;SDS011;7880;50.110;9.372;2023-07-16T03:23:52;4.6692307692307695;;;2.5;;
15557;SDS011;7880;50.110;9.372;2023-07-16T03:28:56;5.0076923076923086;;;2.3999999999999995;;
15557;SDS011;7880;50.110;9.372;2023-07-16T03:34:02;6.707692307692307;;;2.6000000000000005;;
15557;SDS011;7880;50.110;9.372;2023-07-16T03:39:07;5.86153846153846;;;3.0;;
15557;SDS011;7880;50.110;9.372;2023-07-16T03:44:12;5.207692307692308;;;2.030769230769231;;
15557;SDS011;7880;50.110;9.372;2023-07-16T03:49:29;2.5;;;2.3000000000000003;;
15557;SDS011;7880;50.110;9.372;2023-07-16T03:54:21;5.907692307692309;;;2.7692307692307705;;
15557;SDS011;7880;50.110;9.372;2023-07-16T03:59:27;5.407692307692309;;;2.7;;
15557;SDS011;7880;50.110;9.372;2023-07-16T04:04:40;6.1000000000000005;;;2.8;;
15557;SDS011;7880;50.110;9.372;2023-07-16T04:09:37;4.738461538461538;;;2.669230769230769;;
15557;SDS011;7880;50.110;9.372;2023-07-16T04:14:42;6.60769230769231;;;3.2692307692307705;;
15557;SDS011;7880;50.110;9.372;2023-07-16T04:19:48;4.038461538461537;;;2.1307692307692307;;
15557;SDS011;7880;50.110;9.372;2023-07-16T04:24:53;4.0;;;2.430769230769231;;
15557;SDS011;7880;50.110;9.372;2023-07-16T04:29:58;4.700000000000001;;;2.8615384615384616;;
15557;SDS011;7880;50.110;9.372;2023-07-16T04:35:05;6.938461538461538;;;2.8;;
15557;SDS011;7880;50.110;9.372;2023-07-16T04:40:09;5.6;;;2.830769230769231;;
15557;SDS011;7880;50.110;9.372;2023-07-16T04:45:18;5.63846153846154;;;2.5;;
15557;SDS011;7880;50.110;9.372;2023-07-16T04:50:23;6.0076923076923086;;;2.1999999999999997;;
15557;SDS011;7880;50.110;9.372;2023-07-16T04:55:24;4.176923076923078;;;2.8;;
15557;SDS011;7880;50.110;9.372;2023-07-16T05:00:32;4.6692307692307695;;;2.8;;
15557;SDS011;7880;50.110;9.372;2023-07-16T05:05:35;11.984615384615385;;;3.938461538461538;;
15557;SDS011;7880;50.110;9.372;2023-07-16T05:10:39;4.93076923076923;;;2.3999999999999995;;
15557;SDS011;7880;50.110;9.372;2023-07-16T05:15:45;11.146153846153847;;;3.0;;
15557;SDS011;7880;50.110;9.372;2023-07-16T05:20:55;5.43076923076923;;;2.6000000000000005;;
15557;SDS011;7880;50.110;9.372;2023-07-16T05:25:55;8.207692307692307;;;3.030769230769231;;
15557;SDS011;7880;50.110;9.372;2023-07-16T05:31:02;3.3615384615384616;;;2.5;;
15557;SDS011;7880;50.110;9.372;2023-07-16T05:36:16;2.8692307692307684;;;2.3000000000000003;;
15557;SDS011;7880;50.110;9.372;2023-07-16T05:41:14;5.269230769230769;;;2.430769230769231;;
15557;SDS011;7880;50.110;9.372;2023-07-16T05:46:16;9.299999999999999;;;3.0;;
15557;SDS011;7880;50.110;9.372;2023-07-16T05:51:22;7.307692307692306;;;2.899999999999999;;
15557;SDS011;7880;50.110;9.372;2023-07-16T05:56:25;6.169230769230769;;;2.8;;
15557;SDS011;7880;50.110;9.372;2023-07-16T06:01:30;3.8615384615384607;;;2.7;;
15557;SDS011;7880;50.110;9.372;2023-07-16T06:06:35;6.10769230769231;;;3.2692307692307705;;
15557;SDS011;7880;50.110;9.372;2023-07-16T06:11:40;4.538461538461538;;;2.7;;
15557;SDS011;7880;50.110;9.372;2023-07-16T06:16:45;6.807692307692306;;;2.3000000000000003;;
15557;SDS011;7880;50.110;9.372;2023-07-16T06:21:50;4.8076923076923075;;;2.1000000000000005;;
15557;SDS011;7880;50.110;9.372;2023-07-16T06:27:06;4.676923076923078;;;2.638461538461539;;
15557;SDS011;7880;50.110;9.372;2023-07-16T06:32:03;4.676923076923078;;;2.638461538461539;;
15557;SDS011;7880;50.110;9.372;2023-07-16T06:37:07;5.5;;;2.430769230769231;;
15557;SDS011;7880;50.110;9.372;2023-07-16T06:42:11;4.638461538461538;;;2.3000000000000003;;
15557;SDS011;7880;50.110;9.372;2023-07-16T06:47:19;7.153846153846154;;;2.792307692307692;;
15557;SDS011;7880;50.110;9.372;2023-07-16T06:52:22;3.130769230769232;;;2.3000000000000003;;
15557;SDS011;7880;50.110;9.372;2023-07-16T06:57:27;5.9923076923076914;;;2.1307692307692307;;
15557;SDS011;7880;50.110;9.372;2023-07-16T07:02:33;5.5076923076923086;;;2.1999999999999997;;
15557;SDS011;7880;50.110;9.372;2023-07-16T07:07:37;4.538461538461538;;;2.5;;
15557;SDS011;7880;50.110;9.372;2023-07-16T07:12:42;5.038461538461539;;;2.1999999999999997;;
15557;SDS011;7880;50.110;9.372;2023-07-16T07:17:48;3.530769230769231;;;2.0;;
15557;SDS011;7880;50.110;9.372;2023-07-16T07:22:54;8.76923076923077;;;2.330769230769231;;
15557;SDS011;7880;50.110;9.372;2023-07-16T07:28:03;5.138461538461538;;;2.469230769230769;;
15557;SDS011;7880;50.110;9.372;2023-07-16T07:33:08;8.592307692307692;;;2.8;;
15557;SDS011;7880;50.110;9.372;2023-07-16T07:38:10;10.599999999999998;;;3.2692307692307705;;
15557;SDS011;7880;50.110;9.372;2023-07-16T07:43:10;4.2384615384615385;;;2.7;;
15557;SDS011;7880;50.110;9.372;2023-07-16T07:47:26;5.230769230769231;;;2.1999999999999997;;
15557;SDS011;7880;50.110;9.372;2023-07-16T07:52:32;4.207692307692307;;;2.369230769230769;;
15557;SDS011;7880;50.110;9.372;2023-07-16T07:57:36;6.438461538461538;;;2.469230769230769;;
15557;SDS011;7880;50.110;9.372;2023-07-16T08:02:41;6.338461538461538;;;2.6000000000000005;;
15557;SDS011;7880;50.110;9.372;2023-07-16T08:07:46;5.6692307692307695;;;2.3999999999999995;;
15557;SDS011;7880;50.110;9.372;2023-07-16T08:12:51;5.453846153846153;;;2.7;;
15557;SDS011;7880;50.110;9.372;2023-07-16T08:18:10;5.63846153846154;;;2.6000000000000005;;
15557;SDS011;7880;50.110;9.372;2023-07-16T08:23:00;4.63076923076923;;;2.153846153846154;;
15557;SDS011;7880;50.110;9.372;2023-07-16T08:28:06;10.176923076923076;;;2.1000000000000005;;
15557;SDS011;7880;50.110;9.372;2023-07-16T08:33:12;6.807692307692306;;;2.3000000000000003;;
15557;SDS011;7880;50.110;9.372;2023-07-16T08:38:16;3.86923076923077;;;2.0923076923076924;;
15557;SDS011;7880;50.110;9.372;2023-07-16T08:43:22;8.176923076923078;;;2.969230769230769;;
15557;SDS011;7880;50.110;9.372;2023-07-16T08:48:27;9.446153846153845;;;2.3000000000000003;;
15557;SDS011;7880;50.110;9.372;2023-07-16T08:53:33;5.938461538461539;;;2.5;;
15557;SDS011;7880;50.110;9.372;2023-07-16T08:58:39;4.96923076923077;;;1.8000000000000005;;
15557;SDS011;7880;50.110;9.372;2023-07-16T09:03:43;4.538461538461538;;;1.8000000000000005;;
15557;SDS011;7880;50.110;9.372;2023-07-16T09:08:48;8.269230769230766;;;2.261538461538461;;
15557;SDS011;7880;50.110;9.372;2023-07-16T09:14:01;5.653846153846154;;;2.6000000000000005;;
15557;SDS011;7880;50.110;9.372;2023-07-16T09:19:04;3.2692307692307705;;;1.8999999999999997;;
15557;SDS011;7880;50.110;9.372;2023-07-16T09:24:06;7.60769230769231;;;2.569230769230769;;
15557;SDS011;7880;50.110;9.372;2023-07-16T09:29:14;3.6384615384615384;;;2.1000000000000005;;
15557;SDS011;7880;50.110;9.372;2023-07-16T09:34:14;5.06923076923077;;;2.0;;
15557;SDS011;7880;50.110;9.372;2023-07-16T09:39:19;4.200000000000001;;;1.8615384615384618;;
15557;SDS011;7880;50.110;9.372;2023-07-16T09:44:27;4.838461538461538;;;2.5;;
15557;SDS011;7880;50.110;9.372;2023-07-16T09:49:30;4.423076923076923;;;2.0;;
15557;SDS011;7880;50.110;9.372;2023-07-16T09:54:36;9.646153846153846;;;2.1999999999999997;;
15557;SDS011;7880;50.110;9.372;2023-07-16T09:59:40;6.130769230769232;;;2.5;;
15557;SDS011;7880;50.110;9.372;2023-07-16T10:04:45;5.438461538461538;;;2.1999999999999997;;
15557;SDS011;7880;50.110;9.372;2023-07-16T10:09:59;6.838461538461539;;;2.969230769230769;;
15557;SDS011;7880;50.110;9.372;2023-07-16T10:15:05;4.338461538461538;;;2.1999999999999997;;
15557;SDS011;7880;50.110;9.372;2023-07-16T10:20:01;6.423076923076923;;;2.0;;
15557;SDS011;7880;50.110;9.372;2023-07-16T10:25:08;6.076923076923077;;;1.6999999999999995;;
15557;SDS011;7880;50.110;9.372;2023-07-16T10:30:11;5.761538461538463;;;2.230769230769231;;
15557;SDS011;7880;50.110;9.372;2023-07-16T10:35:16;7.376923076923077;;;2.430769230769231;;
15557;SDS011;7880;50.110;9.372;2023-07-16T10:40:52;7.807692307692306;;;1.8999999999999997;;
15557;SDS011;7880;50.110;9.372;2023-07-16T10:45:57;5.907692307692309;;;2.1000000000000005;;
15557;SDS011;7880;50.110;9.372;2023-07-16T10:51:06;4.338461538461538;;;1.8000000000000005;;
15557;SDS011;7880;50.110;9.372;2023-07-16T10:56:08;6.938461538461538;;;1.8000000000000005;;
15557;SDS011;7880;50.110;9.372;2023-07-16T11:01:13;5.561538461538462;;;1.8999999999999997;;
15557;SDS011;7880;50.110;9.372;2023-07-16T11:06:19;3.530769230769231;;;1.8999999999999997;;
15557;SDS011;7880;50.110;9.372;2023-07-16T11:11:27;2.630769230769231;;;1.8000000000000005;;
15557;SDS011;7880;50.110;9.372;2023-07-16T11:16:32;5.561538461538462;;;2.1000000000000005;;
15557;SDS011;7880;50.110;9.372;2023-07-16T11:21:36;5.038461538461539;;;1.8999999999999997;;
15557;SDS011;7880;50.110;9.372;2023-07-16T11:26:49;3.7692307692307705;;;1.8999999999999997;;
15557;SDS011;7880;50.110;9.372;2023-07-16T11:31:48;4.846153846153846;;;2.1615384615384614;;
15557;SDS011;7880;50.110;9.372;2023-07-16T11:36:53;4.461538461538462;;;2.169230769230769;;
15557;SDS011;7880;50.110;9.372;2023-07-16T11:41:56;3.7307692307692295;;;1.8000000000000005;;
15557;SDS011;7880;50.110;9.372;2023-07-16T11:47:02;5.807692307692306;;;1.8000000000000005;;
15557;SDS011;7880;50.110;9.372;2023-07-16T11:52:07;4.0;;;2.030769230769231;;
15557;SDS011;7880;50.110;9.372;2023-07-16T11:57:13;5.238461538461538;;;2.1000000000000005;;
15557;SDS011;7880;50.110;9.372;2023-07-16T12:02:16;6.207692307692307;;;2.3000000000000003;;
15557;SDS011;7880;50.110;9.372;2023-07-16T12:07:30;3.353846153846154;;;1.7692307692307692;;
15557;SDS011;7880;50.110;9.372;2023-07-16T12:12:27;3.869230769230768;;;1.6;;
15557;SDS011;7880;50.110;9.372;2023-07-16T12:17:31;4.638461538461538;;;2.1999999999999997;;
15557;SDS011;7880;50.110;9.372;2023-07-16T12:22:36;4.061538461538462;;;2.0;;
15557;SDS011;7880;50.110;9.372;2023-07-16T12:27:42;5.838461538461538;;;2.030769230769231;;
15557;SDS011;7880;50.110;9.372;2023-07-16T12:32:48;3.2;;;1.8999999999999997;;
15557;SDS011;7880;50.110;9.372;2023-07-16T12:37:52;3.938461538461538;;;1.6;;
15557;SDS011;7880;50.110;9.372;2023-07-16T12:42:57;4.569230769230769;;;2.3000000000000003;;
15557;SDS011;7880;50.110;9.372;2023-07-16T12:48:03;4.16923076923077;;;1.8999999999999997;;
15557;SDS011;7880;50.110;9.372;2023-07-16T12:51:37;3.7461538461538475;;;1.953846153846154;;
15557;SDS011;7880;50.110;9.372;2023-07-16T12:56:43;4.884615384615385;;;1.6999999999999995;;
15557;SDS011;7880;50.110;9.372;2023-07-16T13:01:48;5.438461538461538;;;1.8999999999999997;;
15557;SDS011;7880;50.110;9.372;2023-07-16T13:06:53;4.700000000000001;;;2.1999999999999997;;
15557;SDS011;7880;50.110;9.372;2023-07-16T13:12:00;3.6692307692307695;;;2.1999999999999997;;
15557;SDS011;7880;50.110;9.372;2023-07-16T13:17:09;3.369230769230768;;;1.8999999999999997;;
15557;SDS011;7880;50.110;9.372;2023-07-16T13:22:14;7.653846153846154;;;1.9307692307692308;;
15557;SDS011;7880;50.110;9.372;2023-07-16T13:27:21;7.192307692307694;;;2.530769230769231;;
15557;SDS011;7880;50.110;9.372;2023-07-16T13:32:23;4.5;;;2.06923076923077;;
15557;SDS011;7880;50.110;9.372;2023-07-16T13:37:31;3.8307692307692305;;;1.8307692307692305;;
15557;SDS011;7880;50.110;9.372;2023-07-16T13:42:34;4.938461538461538;;;1.6;;
15557;SDS011;7880;50.110;9.372;2023-07-16T13:47:40;6.06923076923077;;;2.5;;
15557;SDS011;7880;50.110;9.372;2023-07-16T13:52:48;2.7;;;1.9307692307692308;;
15557;SDS011;7880;50.110;9.372;2023-07-16T13:57:50;4.538461538461538;;;2.0;;
15557;SDS011;7880;50.110;9.372;2023-07-16T14:02:58;6.038461538461541;;;1.8999999999999997;;
15557;SDS011;7880;50.110;9.372;2023-07-16T14:08:03;5.538461538461541;;;2.369230769230769;;
15557;SDS011;7880;50.110;9.372;2023-07-16T14:13:06;3.630769230769232;;;1.8999999999999997;;
15557;SDS011;7880;50.110;9.372;2023-07-16T14:18:11;6.13846153846154;;;2.7692307692307705;;
15557;SDS011;7880;50.110;9.372;2023-07-16T14:23:15;3.938461538461538;;;2.0;;
15557;SDS011;7880;50.110;9.372;2023-07-16T14:28:23;3.838461538461539;;;2.369230769230769;;
15557;SDS011;7880;50.110;9.372;2023-07-16T14:33:24;3.899999999999999;;;2.3999999999999995;;
15557;SDS011;7880;50.110;9.372;2023-07-16T14:38:28;5.130769230769232;;;2.0;;
15557;SDS011;7880;50.110;9.372;2023-07-16T14:43:32;5.407692307692309;;;2.569230769230769;;
15557;SDS011;7880;50.110;9.372;2023-07-16T14:48:38;7.5;;;3.0;;
15557;SDS011;7880;50.110;9.372;2023-07-16T14:53:42;4.799999999999999;;;2.3999999999999995;;
15557;SDS011;7880;50.110;9.372;2023-07-16T14:58:51;6.39230769230769;;;2.6230769230769226;;
15557;SDS011;7880;50.110;9.372;2023-07-16T15:03:54;4.06923076923077;;;2.1999999999999997;;
15557;SDS011;7880;50.110;9.372;2023-07-16T15:08:59;7.000000000000002;;;2.330769230769231;;
15557;SDS011;7880;50.110;9.372;2023-07-16T15:14:04;4.3999999999999995;;;2.630769230769231;;
15557;SDS011;7880;50.110;9.372;2023-07-16T15:19:09;4.338461538461538;;;2.569230769230769;;
15557;SDS011;7880;50.110;9.372;2023-07-16T15:24:14;5.299999999999999;;;3.06923076923077;;
15557;SDS011;7880;50.110;9.372;2023-07-16T15:29:18;6.338461538461538;;;3.100000000000001;;
15557;SDS011;7880;50.110;9.372;2023-07-16T15:34:24;6.169230769230769;;;3.0;;
15557;SDS011;7880;50.110;9.372;2023-07-16T15:39:31;5.200000000000001;;;2.830769230769231;;
15557;SDS011;7880;50.110;9.372;2023-07-16T15:44:36;4.938461538461538;;;3.0;;
15557;SDS011;7880;50.110;9.372;2023-07-16T15:49:42;4.115384615384615;;;2.630769230769231;;
15557;SDS011;7880;50.110;9.372;2023-07-16T15:54:48;5.46923076923077;;;3.169230769230769;;
15557;SDS011;7880;50.110;9.372;2023-07-16T15:59:52;7.299999999999998;;;2.661538461538462;;
15557;SDS011;7880;50.110;9.372;2023-07-16T16:04:58;6.507692307692308;;;2.8692307692307684;;
15557;SDS011;7880;50.110;9.372;2023-07-16T16:10:04;8.238461538461536;;;3.399999999999999;;
15557;SDS011;7880;50.110;9.372;2023-07-16T16:15:12;7.10769230769231;;;3.2999999999999994;;
15557;SDS011;7880;50.110;9.372;2023-07-16T16:20:17;6.238461538461536;;;3.0;;
15557;SDS011;7880;50.110;9.372;2023-07-16T16:25:19;5.738461538461537;;;3.100000000000001;;
15557;SDS011;7880;50.110;9.372;2023-07-16T16:30:24;5.200000000000001;;;2.899999999999999;;
15557;SDS011;7880;50.110;9.372;2023-07-16T16:35:38;6.515384615384617;;;3.2;;
15557;SDS011;7880;50.110;9.372;2023-07-16T16:40:35;5.93076923076923;;;3.100000000000001;;
15557;SDS011;7880;50.110;9.372;2023-07-16T16:45:42;7.099999999999999;;;3.2;;
15557;SDS011;7880;50.110;9.372;2023-07-16T16:50:47;6.4;;;3.130769230769232;;
15557;SDS011;7880;50.110;9.372;2023-07-16T16:55:50;7.769230769230769;;;3.130769230769232;;
15557;SDS011;7880;50.110;9.372;2023-07-16T17:01:01;6.938461538461538;;;3.2;;
15557;SDS011;7880;50.110;9.372;2023-07-16T17:06:02;4.607692307692307;;;2.8538461538461535;;
15557;SDS011;7880;50.110;9.372;2023-07-16T17:11:13;5.299999999999999;;;3.3307692307692305;;
15557;SDS011;7880;50.110;9.372;2023-07-16T17:16:11;4.799999999999999;;;3.2;;
15557;SDS011;7880;50.110;9.372;2023-07-16T17:21:26;10.576923076923078;;;6.438461538461538;;
15557;SDS011;7880;50.110;9.372;2023-07-16T17:26:21;10.276923076923076;;;3.7000000000000006;;
15557;SDS011;7880;50.110;9.372;2023-07-16T17:31:27;7.469230769230771;;;3.399999999999999;;
15557;SDS011;7880;50.110;9.372;2023-07-16T17:36:31;7.123076923076924;;;3.100000000000001;;
15557;SDS011;7880;50.110;9.372;2023-07-16T17:41:38;6.269230769230769;;;3.130769230769232;;
15557;SDS011;7880;50.110;9.372;2023-07-16T17:46:44;7.476923076923078;;;3.2999999999999994;;
15557;SDS011;7880;50.110;9.372;2023-07-16T17:51:47;6.376923076923076;;;3.06923076923077;;
15557;SDS011;7880;50.110;9.372;2023-07-16T17:55:47;8.946153846153846;;;3.7000000000000006;;
15557;SDS011;7880;50.110;9.372;2023-07-16T18:00:54;6.238461538461536;;;3.100000000000001;;
15557;SDS011;7880;50.110;9.372;2023-07-16T18:05:58;4.96923076923077;;;3.030769230769231;;
15557;SDS011;7880;50.110;9.372;2023-07-16T18:11:04;5.192307692307693;;;3.161538461538461;;
15557;SDS011;7880;50.110;9.372;2023-07-16T18:16:09;6.10769230769231;;;3.100000000000001;;
15557;SDS011;7880;50.110;9.372;2023-07-16T18:21:16;6.1;;;3.5;;
15557;SDS011;7880;50.110;9.372;2023-07-16T18:26:24;7.676923076923078;;;3.169230769230769;;
15557;SDS011;7880;50.110;9.372;2023-07-16T18:31:26;5.6692307692307695;;;3.630769230769232;;
15557;SDS011;7880;50.110;9.372;2023-07-16T18:36:29;9.607692307692309;;;3.399999999999999;;
15557;SDS011;7880;50.110;9.372;2023-07-16T18:41:35;9.276923076923076;;;4.200000000000001;;
15557;SDS011;7880;50.110;9.372;2023-07-16T18:46:41;8.707692307692309;;;3.2692307692307705;;
15557;SDS011;7880;50.110;9.372;2023-07-16T18:51:48;9.346153846153847;;;4.16923076923077;;
15557;SDS011;7880;50.110;9.372;2023-07-16T18:56:59;3.9615384615384617;;;3.43076923076923;;
15557;SDS011;7880;50.110;9.372;2023-07-16T19:01:57;4.569230769230769;;;3.2;;
15557;SDS011;7880;50.110;9.372;2023-07-16T19:07:02;4.869230769230769;;;3.5;;
15557;SDS011;7880;50.110;9.372;2023-07-16T19:12:12;8.246153846153849;;;3.7692307692307705;;
15557;SDS011;7880;50.110;9.372;2023-07-16T19:17:13;5.6692307692307695;;;3.2999999999999994;;
15557;SDS011;7880;50.110;9.372;2023-07-16T19:22:19;4.06923076923077;;;3.061538461538462;;
15557;SDS011;7880;50.110;9.372;2023-07-16T19:27:24;6.292307692307693;;;3.5;;
15557;SDS011;7880;50.110;9.372;2023-07-16T19:32:29;4.06923076923077;;;3.43076923076923;;
15557;SDS011;7880;50.110;9.372;2023-07-16T19:37:35;4.338461538461538;;;2.969230769230769;;
15557;SDS011;7880;50.110;9.372;2023-07-16T19:42:41;12.176923076923076;;;3.7000000000000006;;
15557;SDS011;7880;50.110;9.372;2023-07-16T19:47:48;6.961538461538459;;;4.200000000000001;;
15557;SDS011;7880;50.110;9.372;2023-07-16T19:53:03;5.753846153846154;;;4.0;;
15557;SDS011;7880;50.110;9.372;2023-07-16T19:57:58;6.269230769230769;;;3.761538461538461;;
15557;SDS011;7880;50.110;9.372;2023-07-16T20:03:16;5.5076923076923086;;;3.469230769230769;;
15557;SDS011;7880;50.110;9.372;2023-07-16T20:08:13;6.938461538461538;;;3.43076923076923;;
15557;SDS011;7880;50.110;9.372;2023-07-16T20:13:16;7.376923076923076;;;4.269230769230769;;
15557;SDS011;7880;50.110;9.372;2023-07-16T20:18:21;8.007692307692306;;;4.200000000000001;;
15557;SDS011;7880;50.110;9.372;2023-07-16T20:23:26;8.238461538461536;;;4.06923076923077;;
15557;SDS011;7880;50.110;9.372;2023-07-16T20:28:34;4.1000000000000005;;;3.100000000000001;;
15557;SDS011;7880;50.110;9.372;2023-07-16T20:33:36;6.761538461538464;;;4.0;;
15557;SDS011;7880;50.110;9.372;2023-07-16T20:38:41;6.869230769230768;;;3.899999999999999;;
15557;SDS011;7880;50.110;9.372;2023-07-16T20:43:46;4.761538461538462;;;3.399999999999999;;
15557;SDS011;7880;50.110;9.372;2023-07-16T20:48:51;9.338461538461539;;;4.0307692307692315;;
15557;SDS011;7880;50.110;9.372;2023-07-16T20:53:55;6.83076923076923;;;3.93076923076923;;
15557;SDS011;7880;50.110;9.372;2023-07-16T20:59:05;6.830769230769231;;;3.369230769230768;;
15557;SDS011;7880;50.110;9.372;2023-07-16T21:04:06;6.507692307692308;;;3.969230769230769;;
15557;SDS011;7880;50.110;9.372;2023-07-16T21:09:11;6.738461538461536;;;4.16923076923077;;
15557;SDS011;7880;50.110;9.372;2023-07-16T21:14:20;8.007692307692306;;;3.869230769230768;;
15557;SDS011;7880;50.110;9.372;2023-07-16T21:19:23;6.06923076923077;;;3.7999999999999994;;
15557;SDS011;7880;50.110;9.372;2023-07-16T21:24:27;6.869230769230768;;;4.0;;
15557;SDS011;7880;50.110;9.372;2023-07-16T21:29:48;4.530769230769231;;;3.5;;
15557;SDS011;7880;50.110;9.372;2023-07-16T21:34:37;5.869230769230768;;;3.7000000000000006;;
15557;SDS011;7880;50.110;9.372;2023-07-16T21:39:43;9.776923076923076;;;3.7000000000000006;;
15557;SDS011;7880;50.110;9.372;2023-07-16T21:44:49;7.799999999999998;;;3.561538461538462;;
15557;SDS011;7880;50.110;9.372;2023-07-16T21:49:54;6.030769230769229;;;4.33076923076923;;
15557;SDS011;7880;50.110;9.372;2023-07-16T21:55:09;5.269230769230769;;;3.43076923076923;;
15557;SDS011;7880;50.110;9.372;2023-07-16T22:00:05;7.276923076923077;;;4.06923076923077;;
15557;SDS011;7880;50.110;9.372;2023-07-16T22:05:10;7.038461538461541;;;4.06923076923077;;
15557;SDS011;7880;50.110;9.372;2023-07-16T22:10:16;6.56923076923077;;;3.899999999999999;;
15557;SDS011;7880;50.110;9.372;2023-07-16T22:15:25;7.230769230769231;;;3.761538461538461;;
15557;SDS011;7880;50.110;9.372;2023-07-16T22:20:25;8.569230769230769;;;4.569230769230769;;
15557;SDS011;7880;50.110;9.372;2023-07-16T22:25:31;7.207692307692307;;;5.138461538461538;;
15557;SDS011;7880;50.110;9.372;2023-07-16T22:30:44;6.238461538461536;;;3.7999999999999994;;
15557;SDS011;7880;50.110;9.372;2023-07-16T22:35:44;7.400000000000001;;;4.3999999999999995;;
15557;SDS011;7880;50.110;9.372;2023-07-16T22:40:47;7.684615384615383;;;4.630769230769232;;
15557;SDS011;7880;50.110;9.372;2023-07-16T22:45:52;6.469230769230771;;;4.569230769230769;;
15557;SDS011;7880;50.110;9.372;2023-07-16T22:50:57;5.269230769230769;;;4.33076923076923;;
15557;SDS011;7880;50.110;9.372;2023-07-16T22:56:02;7.807692307692306;;;4.200000000000001;;
15557;SDS011;7880;50.110;9.372;2023-07-16T22:59:57;5.4;;;4.6000000000000005;;